sensor_id;sensor_type;location;lat;lon;timestamp;temperature;humidity
33023;DHT22;19390;51.460;5.710;2023-07-02T00:01:10;16.70;99.90
33023;DHT22;19390;51.460;5.710;2023-07-02T00:03:38;16.70;99.90
33023;DHT22;19390;51.460;5.710;2023-07-02T00:06:03;16.60;99.90
33023;DHT22;19390;51.460;5.710;2023-07-02T00:08:29;16.60;99.90
33023;DHT22;19390;51.460;5.710;2023-07-02T00:10:54;16.60;99.90
33023;DHT22;19390;51.460;5.710;2023-07-02T00:13:20;16.60;99.90
33023;DHT22;19390;51.460;5.710;2023-07-02T00:15:46;16.60;99.90
33023;DHT22;19390;51.460;5.710;2023-07-02T00:18:11;16.50;99.90
33023;DHT22;19390;51.460;5.710;2023-07-02T00:20:42;16.60;99.90
33023;DHT22;19390;51.460;5.710;2023-07-02T00:23:08;16.50;99.90
33023;DHT22;19390;51.460;5.710;2023-07-02T00:25:36;16.50;99.90
33023;DHT22;19390;51.460;5.710;2023-07-02T00:28:02;16.50;99.90
33023;DHT22;19390;51.460;5.710;2023-07-02T00:30:27;16.40;99.90
33023;DHT22;19390;51.460;5.710;2023-07-02T00:32:53;16.50;99.90
33023;DHT22;19390;51.460;5.710;2023-07-02T00:35:19;16.50;99.90
33023;DHT22;19390;51.460;5.710;2023-07-02T00:37:44;16.60;99.90
33023;DHT22;19390;51.460;5.710;2023-07-02T00:40:10;16.60;99.90
33023;DHT22;19390;51.460;5.710;2023-07-02T00:42:36;16.60;99.90
33023;DHT22;19390;51.460;5.710;2023-07-02T00:45:02;16.60;99.90
33023;DHT22;19390;51.460;5.710;2023-07-02T00:47:33;16.60;99.90
33023;DHT22;19390;51.460;5.710;2023-07-02T00:50:00;16.60;99.90
33023;DHT22;19390;51.460;5.710;2023-07-02T00:52:27;16.60;99.90
33023;DHT22;19390;51.460;5.710;2023-07-02T00:54:53;16.60;99.90
33023;DHT22;19390;51.460;5.710;2023-07-02T00:57:19;16.60;99.90
33023;DHT22;19390;51.460;5.710;2023-07-02T00:59:45;16.50;99.90
33023;DHT22;19390;51.460;5.710;2023-07-02T01:02:11;16.50;99.90
33023;DHT22;19390;51.460;5.710;2023-07-02T01:04:38;16.50;99.90
33023;DHT22;19390;51.460;5.710;2023-07-02T01:07:04;16.50;99.90
33023;DHT22;19390;51.460;5.710;2023-07-02T01:09:35;16.40;99.90
33023;DHT22;19390;51.460;5.710;2023-07-02T01:12:04;16.40;99.90
33023;DHT22;19390;51.460;5.710;2023-07-02T01:14:34;16.40;99.90
33023;DHT22;19390;51.460;5.710;2023-07-02T01:17:02;16.40;99.90
33023;DHT22;19390;51.460;5.710;2023-07-02T01:19:58;16.40;99.90
33023;DHT22;19390;51.460;5.710;2023-07-02T01:22:26;16.40;99.90
33023;DHT22;19390;51.460;5.710;2023-07-02T01:24:54;16.40;99.90
33023;DHT22;19390;51.460;5.710;2023-07-02T01:27:20;16.30;99.90
33023;DHT22;19390;51.460;5.710;2023-07-02T01:29:46;16.20;99.90
33023;DHT22;19390;51.460;5.710;2023-07-02T01:32:13;16.30;99.90
33023;DHT22;19390;51.460;5.710;2023-07-02T01:34:39;16.20;99.90
33023;DHT22;19390;51.460;5.710;2023-07-02T01:37:04;16.20;99.90
33023;DHT22;19390;51.460;5.710;2023-07-02T01:39:30;16.20;99.90
33023;DHT22;19390;51.460;5.710;2023-07-02T01:42:14;16.20;99.90
33023;DHT22;19390;51.460;5.710;2023-07-02T01:44:42;16.20;99.90
33023;DHT22;19390;51.460;5.710;2023-07-02T01:47:08;16.10;99.90
33023;DHT22;19390;51.460;5.710;2023-07-02T01:49:34;16.10;99.90
33023;DHT22;19390;51.460;5.710;2023-07-02T01:52:00;16.00;99.90
33023;DHT22;19390;51.460;5.710;2023-07-02T01:54:27;15.90;99.90
33023;DHT22;19390;51.460;5.710;2023-07-02T01:56:53;15.90;99.90
33023;DHT22;19390;51.460;5.710;2023-07-02T01:59:19;16.00;99.90
33023;DHT22;19390;51.460;5.710;2023-07-02T02:01:45;16.00;99.90
33023;DHT22;19390;51.460;5.710;2023-07-02T02:04:11;16.10;99.90
33023;DHT22;19390;51.460;5.710;2023-07-02T02:06:38;16.10;99.90
33023;DHT22;19390;51.460;5.710;2023-07-02T02:09:04;16.10;99.90
33023;DHT22;19390;51.460;5.710;2023-07-02T02:11:31;16.00;99.90
33023;DHT22;19390;51.460;5.710;2023-07-02T02:14:00;15.90;99.90
33023;DHT22;19390;51.460;5.710;2023-07-02T02:16:27;16.00;99.90
33023;DHT22;19390;51.460;5.710;2023-07-02T02:18:53;15.90;99.90
33023;DHT22;19390;51.460;5.710;2023-07-02T02:21:19;15.90;99.90
33023;DHT22;19390;51.460;5.710;2023-07-02T02:23:45;15.80;99.90
33023;DHT22;19390;51.460;5.710;2023-07-02T02:26:10;15.80;99.90
33023;DHT22;19390;51.460;5.710;2023-07-02T02:28:36;15.80;99.90
33023;DHT22;19390;51.460;5.710;2023-07-02T02:31:02;15.70;99.90
33023;DHT22;19390;51.460;5.710;2023-07-02T02:33:28;15.70;99.90
33023;DHT22;19390;51.460;5.710;2023-07-02T02:35:53;15.80;99.90
33023;DHT22;19390;51.460;5.710;2023-07-02T02:38:19;15.80;99.90
33023;DHT22;19390;51.460;5.710;2023-07-02T02:40:45;15.90;99.90
33023;DHT22;19390;51.460;5.710;2023-07-02T02:43:10;15.90;99.90
33023;DHT22;19390;51.460;5.710;2023-07-02T02:45:36;15.90;99.90
33023;DHT22;19390;51.460;5.710;2023-07-02T02:48:02;15.90;99.90
33023;DHT22;19390;51.460;5.710;2023-07-02T02:50:27;15.90;99.90
33023;DHT22;19390;51.460;5.710;2023-07-02T02:52:53;15.90;99.90
33023;DHT22;19390;51.460;5.710;2023-07-02T02:55:19;15.90;99.90
33023;DHT22;19390;51.460;5.710;2023-07-02T02:57:44;15.90;99.90
33023;DHT22;19390;51.460;5.710;2023-07-02T03:00:10;15.90;99.90
33023;DHT22;19390;51.460;5.710;2023-07-02T03:02:37;15.90;99.90
33023;DHT22;19390;51.460;5.710;2023-07-02T03:05:03;15.80;99.90
33023;DHT22;19390;51.460;5.710;2023-07-02T03:07:29;15.70;99.90
33023;DHT22;19390;51.460;5.710;2023-07-02T03:09:55;15.80;99.90
33023;DHT22;19390;51.460;5.710;2023-07-02T03:12:21;15.80;99.90
33023;DHT22;19390;51.460;5.710;2023-07-02T03:14:47;15.80;99.90
33023;DHT22;19390;51.460;5.710;2023-07-02T03:17:17;15.80;99.90
33023;DHT22;19390;51.460;5.710;2023-07-02T03:19:42;15.90;99.90
33023;DHT22;19390;51.460;5.710;2023-07-02T03:22:08;15.90;99.90
33023;DHT22;19390;51.460;5.710;2023-07-02T03:24:33;15.90;99.90
33023;DHT22;19390;51.460;5.710;2023-07-02T03:26:59;15.80;99.90
33023;DHT22;19390;51.460;5.710;2023-07-02T03:29:25;15.90;99.90
33023;DHT22;19390;51.460;5.710;2023-07-02T03:31:50;15.90;99.90
33023;DHT22;19390;51.460;5.710;2023-07-02T03:34:16;15.80;99.90
33023;DHT22;19390;51.460;5.710;2023-07-02T03:36:42;15.80;99.90
33023;DHT22;19390;51.460;5.710;2023-07-02T03:39:07;15.80;99.90
33023;DHT22;19390;51.460;5.710;2023-07-02T03:41:33;15.70;99.90
33023;DHT22;19390;51.460;5.710;2023-07-02T03:43:58;15.70;99.90
33023;DHT22;19390;51.460;5.710;2023-07-02T03:46:24;15.70;99.90
33023;DHT22;19390;51.460;5.710;2023-07-02T03:48:50;15.80;99.90
33023;DHT22;19390;51.460;5.710;2023-07-02T03:51:15;15.80;99.90
33023;DHT22;19390;51.460;5.710;2023-07-02T03:53:41;15.80;99.90
33023;DHT22;19390;51.460;5.710;2023-07-02T03:56:07;15.80;99.90
33023;DHT22;19390;51.460;5.710;2023-07-02T03:58:32;15.90;99.90
33023;DHT22;19390;51.460;5.710;2023-07-02T04:00:59;15.80;99.90
33023;DHT22;19390;51.460;5.710;2023-07-02T04:03:25;15.80;99.90
33023;DHT22;19390;51.460;5.710;2023-07-02T04:05:50;15.80;99.90
33023;DHT22;19390;51.460;5.710;2023-07-02T04:08:16;15.70;99.90
33023;DHT22;19390;51.460;5.710;2023-07-02T04:10:41;15.60;99.90
33023;DHT22;19390;51.460;5.710;2023-07-02T04:13:07;15.60;99.90
33023;DHT22;19390;51.460;5.710;2023-07-02T04:15:33;15.50;99.90
33023;DHT22;19390;51.460;5.710;2023-07-02T04:17:59;15.50;99.90
33023;DHT22;19390;51.460;5.710;2023-07-02T04:20:24;15.40;99.90
33023;DHT22;19390;51.460;5.710;2023-07-02T04:22:51;15.40;99.90
33023;DHT22;19390;51.460;5.710;2023-07-02T04:25:17;15.30;99.90
33023;DHT22;19390;51.460;5.710;2023-07-02T04:27:43;15.30;99.90
33023;DHT22;19390;51.460;5.710;2023-07-02T04:30:10;15.30;99.90
33023;DHT22;19390;51.460;5.710;2023-07-02T04:32:39;15.20;99.90
33023;DHT22;19390;51.460;5.710;2023-07-02T04:35:06;15.30;99.90
33023;DHT22;19390;51.460;5.710;2023-07-02T04:37:32;15.40;99.90
33023;DHT22;19390;51.460;5.710;2023-07-02T04:39:57;15.50;99.90
33023;DHT22;19390;51.460;5.710;2023-07-02T04:42:23;15.60;99.90
33023;DHT22;19390;51.460;5.710;2023-07-02T04:44:53;15.60;99.90
33023;DHT22;19390;51.460;5.710;2023-07-02T04:47:19;15.70;99.90
33023;DHT22;19390;51.460;5.710;2023-07-02T04:49:45;15.70;99.90
33023;DHT22;19390;51.460;5.710;2023-07-02T04:52:11;15.80;99.90
33023;DHT22;19390;51.460;5.710;2023-07-02T04:54:36;15.80;99.90
33023;DHT22;19390;51.460;5.710;2023-07-02T04:57:02;15.90;99.90
33023;DHT22;19390;51.460;5.710;2023-07-02T04:59:28;16.50;99.90
33023;DHT22;19390;51.460;5.710;2023-07-02T05:01:54;16.70;99.90
33023;DHT22;19390;51.460;5.710;2023-07-02T05:04:19;16.50;99.90
33023;DHT22;19390;51.460;5.710;2023-07-02T05:06:45;16.20;99.90
33023;DHT22;19390;51.460;5.710;2023-07-02T05:09:10;16.20;99.90
33023;DHT22;19390;51.460;5.710;2023-07-02T05:11:36;16.30;99.90
33023;DHT22;19390;51.460;5.710;2023-07-02T05:14:02;17.30;99.90
33023;DHT22;19390;51.460;5.710;2023-07-02T05:16:27;19.10;99.90
33023;DHT22;19390;51.460;5.710;2023-07-02T05:18:53;19.10;99.90
33023;DHT22;19390;51.460;5.710;2023-07-02T05:21:19;19.20;99.90
33023;DHT22;19390;51.460;5.710;2023-07-02T05:23:44;18.80;99.90
33023;DHT22;19390;51.460;5.710;2023-07-02T05:26:10;19.40;99.90
33023;DHT22;19390;51.460;5.710;2023-07-02T05:28:36;20.30;99.90
33023;DHT22;19390;51.460;5.710;2023-07-02T05:31:02;19.30;99.90
33023;DHT22;19390;51.460;5.710;2023-07-02T05:33:27;20.00;99.90
33023;DHT22;19390;51.460;5.710;2023-07-02T05:35:53;18.60;99.90
33023;DHT22;19390;51.460;5.710;2023-07-02T05:38:19;18.50;99.90
33023;DHT22;19390;51.460;5.710;2023-07-02T05:40:45;20.60;99.90
33023;DHT22;19390;51.460;5.710;2023-07-02T05:43:11;19.00;99.90
33023;DHT22;19390;51.460;5.710;2023-07-02T05:45:37;18.20;99.90
33023;DHT22;19390;51.460;5.710;2023-07-02T05:48:03;18.30;99.90
33023;DHT22;19390;51.460;5.710;2023-07-02T05:50:28;19.30;99.90
33023;DHT22;19390;51.460;5.710;2023-07-02T05:52:54;18.80;99.90
33023;DHT22;19390;51.460;5.710;2023-07-02T05:55:19;19.70;99.90
33023;DHT22;19390;51.460;5.710;2023-07-02T05:57:45;18.50;99.90
33023;DHT22;19390;51.460;5.710;2023-07-02T06:00:12;19.60;99.90
33023;DHT22;19390;51.460;5.710;2023-07-02T06:02:37;19.70;99.90
33023;DHT22;19390;51.460;5.710;2023-07-02T06:05:03;18.60;99.90
33023;DHT22;19390;51.460;5.710;2023-07-02T06:07:29;18.20;99.90
33023;DHT22;19390;51.460;5.710;2023-07-02T06:09:55;18.30;99.90
33023;DHT22;19390;51.460;5.710;2023-07-02T06:12:21;18.20;99.90
33023;DHT22;19390;51.460;5.710;2023-07-02T06:14:47;18.10;99.90
33023;DHT22;19390;51.460;5.710;2023-07-02T06:17:14;18.20;99.90
33023;DHT22;19390;51.460;5.710;2023-07-02T06:19:40;18.30;99.90
33023;DHT22;19390;51.460;5.710;2023-07-02T06:22:06;19.80;99.90
33023;DHT22;19390;51.460;5.710;2023-07-02T06:24:32;19.40;99.90
33023;DHT22;19390;51.460;5.710;2023-07-02T06:26:57;20.70;99.90
33023;DHT22;19390;51.460;5.710;2023-07-02T06:29:23;22.70;99.90
33023;DHT22;19390;51.460;5.710;2023-07-02T06:31:49;24.00;99.90
33023;DHT22;19390;51.460;5.710;2023-07-02T06:34:15;23.60;99.90
33023;DHT22;19390;51.460;5.710;2023-07-02T06:36:41;21.90;99.90
33023;DHT22;19390;51.460;5.710;2023-07-02T06:39:07;22.40;99.90
33023;DHT22;19390;51.460;5.710;2023-07-02T06:41:34;23.70;99.90
33023;DHT22;19390;51.460;5.710;2023-07-02T06:44:00;21.10;99.90
33023;DHT22;19390;51.460;5.710;2023-07-02T06:46:26;19.40;99.90
33023;DHT22;19390;51.460;5.710;2023-07-02T06:48:52;19.60;99.90
33023;DHT22;19390;51.460;5.710;2023-07-02T06:51:17;19.90;99.90
33023;DHT22;19390;51.460;5.710;2023-07-02T06:53:45;20.70;99.90
33023;DHT22;19390;51.460;5.710;2023-07-02T06:56:10;20.30;99.90
33023;DHT22;19390;51.460;5.710;2023-07-02T06:58:36;20.10;99.90
33023;DHT22;19390;51.460;5.710;2023-07-02T07:01:02;19.60;99.90
33023;DHT22;19390;51.460;5.710;2023-07-02T07:03:28;19.90;99.90
33023;DHT22;19390;51.460;5.710;2023-07-02T07:05:54;19.80;99.90
33023;DHT22;19390;51.460;5.710;2023-07-02T07:08:19;19.80;99.90
33023;DHT22;19390;51.460;5.710;2023-07-02T07:10:45;20.30;99.90
33023;DHT22;19390;51.460;5.710;2023-07-02T07:13:11;21.90;99.90
33023;DHT22;19390;51.460;5.710;2023-07-02T07:15:37;24.20;99.90
33023;DHT22;19390;51.460;5.710;2023-07-02T07:18:03;23.70;99.90
33023;DHT22;19390;51.460;5.710;2023-07-02T07:20:30;23.50;99.90
33023;DHT22;19390;51.460;5.710;2023-07-02T07:22:55;23.20;99.90
33023;DHT22;19390;51.460;5.710;2023-07-02T07:25:21;22.30;99.90
33023;DHT22;19390;51.460;5.710;2023-07-02T07:27:47;22.20;99.90
33023;DHT22;19390;51.460;5.710;2023-07-02T07:30:12;22.00;99.90
33023;DHT22;19390;51.460;5.710;2023-07-02T07:32:40;21.70;99.90
33023;DHT22;19390;51.460;5.710;2023-07-02T07:35:07;21.40;99.90
33023;DHT22;19390;51.460;5.710;2023-07-02T07:37:32;21.30;99.90
33023;DHT22;19390;51.460;5.710;2023-07-02T07:39:58;22.30;99.90
33023;DHT22;19390;51.460;5.710;2023-07-02T07:42:24;21.70;99.90
33023;DHT22;19390;51.460;5.710;2023-07-02T07:44:50;22.00;99.90
33023;DHT22;19390;51.460;5.710;2023-07-02T07:47:15;21.40;99.90
33023;DHT22;19390;51.460;5.710;2023-07-02T07:49:41;20.40;99.90
33023;DHT22;19390;51.460;5.710;2023-07-02T07:52:07;21.70;99.90
33023;DHT22;19390;51.460;5.710;2023-07-02T07:54:33;21.30;99.90
33023;DHT22;19390;51.460;5.710;2023-07-02T07:57:04;21.60;99.90
33023;DHT22;19390;51.460;5.710;2023-07-02T07:59:30;21.70;99.90
33023;DHT22;19390;51.460;5.710;2023-07-02T08:01:55;23.30;99.90
33023;DHT22;19390;51.460;5.710;2023-07-02T08:04:21;21.90;99.90
33023;DHT22;19390;51.460;5.710;2023-07-02T08:06:46;21.10;99.90
33023;DHT22;19390;51.460;5.710;2023-07-02T08:09:12;20.90;99.90
33023;DHT22;19390;51.460;5.710;2023-07-02T08:11:37;20.80;99.90
33023;DHT22;19390;51.460;5.710;2023-07-02T08:14:03;21.20;99.90
33023;DHT22;19390;51.460;5.710;2023-07-02T08:16:29;25.70;99.90
33023;DHT22;19390;51.460;5.710;2023-07-02T08:18:54;24.10;99.90
33023;DHT22;19390;51.460;5.710;2023-07-02T08:21:20;24.90;99.90
33023;DHT22;19390;51.460;5.710;2023-07-02T08:23:46;26.40;99.90
33023;DHT22;19390;51.460;5.710;2023-07-02T08:26:11;28.50;99.90
33023;DHT22;19390;51.460;5.710;2023-07-02T08:28:38;27.90;99.90
33023;DHT22;19390;51.460;5.710;2023-07-02T08:31:04;27.60;99.90
33023;DHT22;19390;51.460;5.710;2023-07-02T08:33:30;27.80;99.90
33023;DHT22;19390;51.460;5.710;2023-07-02T08:35:56;27.60;99.90
33023;DHT22;19390;51.460;5.710;2023-07-02T08:38:23;27.70;99.90
33023;DHT22;19390;51.460;5.710;2023-07-02T08:40:51;26.10;99.90
33023;DHT22;19390;51.460;5.710;2023-07-02T08:43:17;25.90;99.90
33023;DHT22;19390;51.460;5.710;2023-07-02T08:45:43;24.60;99.90
33023;DHT22;19390;51.460;5.710;2023-07-02T08:48:10;23.80;99.90
33023;DHT22;19390;51.460;5.710;2023-07-02T08:50:36;23.40;99.90
33023;DHT22;19390;51.460;5.710;2023-07-02T08:53:02;24.70;99.90
33023;DHT22;19390;51.460;5.710;2023-07-02T08:55:28;25.70;99.90
33023;DHT22;19390;51.460;5.710;2023-07-02T08:57:56;24.90;99.90
33023;DHT22;19390;51.460;5.710;2023-07-02T09:00:26;23.80;99.90
33023;DHT22;19390;51.460;5.710;2023-07-02T09:02:52;23.30;99.90
33023;DHT22;19390;51.460;5.710;2023-07-02T09:05:18;22.10;99.90
33023;DHT22;19390;51.460;5.710;2023-07-02T09:07:46;21.70;99.90
33023;DHT22;19390;51.460;5.710;2023-07-02T09:10:11;21.20;99.90
33023;DHT22;19390;51.460;5.710;2023-07-02T09:12:37;21.20;99.90
33023;DHT22;19390;51.460;5.710;2023-07-02T09:15:05;21.60;99.90
33023;DHT22;19390;51.460;5.710;2023-07-02T09:17:36;24.20;99.90
33023;DHT22;19390;51.460;5.710;2023-07-02T09:20:04;26.00;99.90
33023;DHT22;19390;51.460;5.710;2023-07-02T09:22:32;23.90;99.90
33023;DHT22;19390;51.460;5.710;2023-07-02T09:24:58;24.10;99.90
33023;DHT22;19390;51.460;5.710;2023-07-02T09:27:37;25.50;99.90
33023;DHT22;19390;51.460;5.710;2023-07-02T09:30:14;25.40;99.90
33023;DHT22;19390;51.460;5.710;2023-07-02T09:32:45;23.30;99.90
33023;DHT22;19390;51.460;5.710;2023-07-02T09:35:11;22.00;99.90
33023;DHT22;19390;51.460;5.710;2023-07-02T09:37:37;26.50;99.90
33023;DHT22;19390;51.460;5.710;2023-07-02T09:40:04;24.20;99.90
33023;DHT22;19390;51.460;5.710;2023-07-02T09:42:34;22.70;99.90
33023;DHT22;19390;51.460;5.710;2023-07-02T09:45:01;22.60;99.90
33023;DHT22;19390;51.460;5.710;2023-07-02T09:47:27;27.70;99.90
33023;DHT22;19390;51.460;5.710;2023-07-02T09:49:57;27.80;99.90
33023;DHT22;19390;51.460;5.710;2023-07-02T09:52:25;25.80;99.90
33023;DHT22;19390;51.460;5.710;2023-07-02T09:54:51;25.50;99.90
33023;DHT22;19390;51.460;5.710;2023-07-02T09:57:17;24.60;99.90
33023;DHT22;19390;51.460;5.710;2023-07-02T09:59:42;26.80;99.90
33023;DHT22;19390;51.460;5.710;2023-07-02T10:02:09;26.80;99.90
33023;DHT22;19390;51.460;5.710;2023-07-02T10:04:43;26.20;99.90
33023;DHT22;19390;51.460;5.710;2023-07-02T10:07:09;27.00;99.90
33023;DHT22;19390;51.460;5.710;2023-07-02T10:09:41;27.30;99.90
33023;DHT22;19390;51.460;5.710;2023-07-02T10:12:26;24.80;99.90
33023;DHT22;19390;51.460;5.710;2023-07-02T10:14:55;22.90;99.90
33023;DHT22;19390;51.460;5.710;2023-07-02T10:17:31;22.70;99.90
33023;DHT22;19390;51.460;5.710;2023-07-02T10:20:02;24.20;99.90
33023;DHT22;19390;51.460;5.710;2023-07-02T10:22:49;24.20;99.90
33023;DHT22;19390;51.460;5.710;2023-07-02T10:25:25;22.80;99.90
33023;DHT22;19390;51.460;5.710;2023-07-02T10:27:51;23.10;99.90
33023;DHT22;19390;51.460;5.710;2023-07-02T10:30:17;22.50;99.90
33023;DHT22;19390;51.460;5.710;2023-07-02T10:32:42;25.50;99.90
33023;DHT22;19390;51.460;5.710;2023-07-02T10:35:18;26.40;99.90
33023;DHT22;19390;51.460;5.710;2023-07-02T10:37:44;26.70;99.90
33023;DHT22;19390;51.460;5.710;2023-07-02T10:40:11;27.70;99.90
33023;DHT22;19390;51.460;5.710;2023-07-02T10:42:51;27.50;99.90
33023;DHT22;19390;51.460;5.710;2023-07-02T10:45:17;26.40;99.90
33023;DHT22;19390;51.460;5.710;2023-07-02T10:47:43;25.60;99.90
33023;DHT22;19390;51.460;5.710;2023-07-02T10:50:17;23.40;99.90
33023;DHT22;19390;51.460;5.710;2023-07-02T10:52:43;22.60;99.90
33023;DHT22;19390;51.460;5.710;2023-07-02T10:55:09;23.90;99.90
33023;DHT22;19390;51.460;5.710;2023-07-02T10:57:35;23.80;99.90
33023;DHT22;19390;51.460;5.710;2023-07-02T11:00:05;22.60;99.90
33023;DHT22;19390;51.460;5.710;2023-07-02T11:02:40;22.70;99.90
33023;DHT22;19390;51.460;5.710;2023-07-02T11:05:07;24.30;99.90
33023;DHT22;19390;51.460;5.710;2023-07-02T11:07:33;23.10;99.90
33023;DHT22;19390;51.460;5.710;2023-07-02T11:09:59;25.20;99.90
33023;DHT22;19390;51.460;5.710;2023-07-02T11:12:29;26.80;99.90
33023;DHT22;19390;51.460;5.710;2023-07-02T11:14:55;28.30;99.90
33023;DHT22;19390;51.460;5.710;2023-07-02T11:17:25;26.50;99.90
33023;DHT22;19390;51.460;5.710;2023-07-02T11:19:51;26.90;99.90
33023;DHT22;19390;51.460;5.710;2023-07-02T11:22:17;27.30;99.90
33023;DHT22;19390;51.460;5.710;2023-07-02T11:24:43;28.30;99.90
33023;DHT22;19390;51.460;5.710;2023-07-02T11:27:08;28.90;99.90
33023;DHT22;19390;51.460;5.710;2023-07-02T11:29:35;27.30;99.90
33023;DHT22;19390;51.460;5.710;2023-07-02T11:32:08;27.00;99.90
33023;DHT22;19390;51.460;5.710;2023-07-02T11:34:35;26.20;99.90
33023;DHT22;19390;51.460;5.710;2023-07-02T11:37:01;25.00;99.90
33023;DHT22;19390;51.460;5.710;2023-07-02T11:39:27;25.30;99.90
33023;DHT22;19390;51.460;5.710;2023-07-02T11:41:53;24.20;99.90
33023;DHT22;19390;51.460;5.710;2023-07-02T11:44:18;24.40;99.90
33023;DHT22;19390;51.460;5.710;2023-07-02T11:46:44;26.40;99.90
33023;DHT22;19390;51.460;5.710;2023-07-02T11:49:12;25.10;99.90
33023;DHT22;19390;51.460;5.710;2023-07-02T11:51:41;24.70;99.90
33023;DHT22;19390;51.460;5.710;2023-07-02T11:54:12;25.40;99.90
33023;DHT22;19390;51.460;5.710;2023-07-02T11:56:37;24.40;99.90
33023;DHT22;19390;51.460;5.710;2023-07-02T11:59:03;24.00;99.90
33023;DHT22;19390;51.460;5.710;2023-07-02T12:01:29;26.20;99.90
33023;DHT22;19390;51.460;5.710;2023-07-02T12:03:55;24.10;99.90
33023;DHT22;19390;51.460;5.710;2023-07-02T12:06:20;23.00;99.90
33023;DHT22;19390;51.460;5.710;2023-07-02T12:08:46;22.90;99.90
33023;DHT22;19390;51.460;5.710;2023-07-02T12:11:11;22.50;99.90
33023;DHT22;19390;51.460;5.710;2023-07-02T12:13:37;22.10;99.90
33023;DHT22;19390;51.460;5.710;2023-07-02T12:16:03;22.50;99.90
33023;DHT22;19390;51.460;5.710;2023-07-02T12:18:29;23.90;99.90
33023;DHT22;19390;51.460;5.710;2023-07-02T12:20:54;26.60;99.90
33023;DHT22;19390;51.460;5.710;2023-07-02T12:23:20;27.10;99.90
33023;DHT22;19390;51.460;5.710;2023-07-02T12:25:45;26.10;99.90
33023;DHT22;19390;51.460;5.710;2023-07-02T12:28:11;26.80;99.90
33023;DHT22;19390;51.460;5.710;2023-07-02T12:30:37;28.00;99.90
33023;DHT22;19390;51.460;5.710;2023-07-02T12:33:02;25.30;99.90
33023;DHT22;19390;51.460;5.710;2023-07-02T12:35:28;25.30;99.90
33023;DHT22;19390;51.460;5.710;2023-07-02T12:37:54;27.10;99.90
33023;DHT22;19390;51.460;5.710;2023-07-02T12:40:20;27.80;99.90
33023;DHT22;19390;51.460;5.710;2023-07-02T12:42:46;28.50;99.90
33023;DHT22;19390;51.460;5.710;2023-07-02T12:45:13;27.60;99.90
33023;DHT22;19390;51.460;5.710;2023-07-02T12:47:40;28.10;99.90
33023;DHT22;19390;51.460;5.710;2023-07-02T12:50:06;27.90;99.90
33023;DHT22;19390;51.460;5.710;2023-07-02T12:52:33;26.50;99.90
33023;DHT22;19390;51.460;5.710;2023-07-02T12:54:59;27.50;99.90
33023;DHT22;19390;51.460;5.710;2023-07-02T12:57:25;29.00;99.90
33023;DHT22;19390;51.460;5.710;2023-07-02T12:59:55;29.10;99.90
33023;DHT22;19390;51.460;5.710;2023-07-02T13:02:22;28.50;99.90
33023;DHT22;19390;51.460;5.710;2023-07-02T13:04:49;28.80;99.90
33023;DHT22;19390;51.460;5.710;2023-07-02T13:07:15;27.00;99.90
33023;DHT22;19390;51.460;5.710;2023-07-02T13:09:41;25.20;99.90
33023;DHT22;19390;51.460;5.710;2023-07-02T13:12:07;26.50;99.90
33023;DHT22;19390;51.460;5.710;2023-07-02T13:14:34;27.40;99.90
33023;DHT22;19390;51.460;5.710;2023-07-02T13:17:00;27.70;99.90
33023;DHT22;19390;51.460;5.710;2023-07-02T13:19:25;26.70;99.90
33023;DHT22;19390;51.460;5.710;2023-07-02T13:21:52;26.30;99.90
33023;DHT22;19390;51.460;5.710;2023-07-02T13:24:18;27.20;99.90
33023;DHT22;19390;51.460;5.710;2023-07-02T13:26:43;27.10;99.90
33023;DHT22;19390;51.460;5.710;2023-07-02T13:29:09;27.50;99.90
33023;DHT22;19390;51.460;5.710;2023-07-02T13:31:35;27.30;99.90
33023;DHT22;19390;51.460;5.710;2023-07-02T13:34:00;28.30;99.90
33023;DHT22;19390;51.460;5.710;2023-07-02T13:36:26;26.30;99.90
33023;DHT22;19390;51.460;5.710;2023-07-02T13:38:54;25.80;99.90
33023;DHT22;19390;51.460;5.710;2023-07-02T13:41:20;24.90;99.90
33023;DHT22;19390;51.460;5.710;2023-07-02T13:43:45;25.80;99.90
33023;DHT22;19390;51.460;5.710;2023-07-02T13:46:11;24.60;99.90
33023;DHT22;19390;51.460;5.710;2023-07-02T13:48:36;25.30;99.90
33023;DHT22;19390;51.460;5.710;2023-07-02T13:51:02;25.90;99.90
33023;DHT22;19390;51.460;5.710;2023-07-02T13:53:28;26.30;99.90
33023;DHT22;19390;51.460;5.710;2023-07-02T13:55:53;26.00;99.90
33023;DHT22;19390;51.460;5.710;2023-07-02T13:58:19;25.20;99.90
33023;DHT22;19390;51.460;5.710;2023-07-02T14:00:44;24.70;99.90
33023;DHT22;19390;51.460;5.710;2023-07-02T14:03:10;25.60;99.90
33023;DHT22;19390;51.460;5.710;2023-07-02T14:05:36;24.80;99.90
33023;DHT22;19390;51.460;5.710;2023-07-02T14:08:02;25.10;99.90
33023;DHT22;19390;51.460;5.710;2023-07-02T14:10:27;25.30;99.90
33023;DHT22;19390;51.460;5.710;2023-07-02T14:12:54;24.90;99.90
33023;DHT22;19390;51.460;5.710;2023-07-02T14:15:20;25.70;99.90
33023;DHT22;19390;51.460;5.710;2023-07-02T14:17:46;25.00;99.90
33023;DHT22;19390;51.460;5.710;2023-07-02T14:20:12;24.60;99.90
33023;DHT22;19390;51.460;5.710;2023-07-02T14:22:38;23.90;99.90
33023;DHT22;19390;51.460;5.710;2023-07-02T14:25:03;24.70;99.90
33023;DHT22;19390;51.460;5.710;2023-07-02T14:27:29;25.30;99.90
33023;DHT22;19390;51.460;5.710;2023-07-02T14:29:55;25.20;99.90
33023;DHT22;19390;51.460;5.710;2023-07-02T14:32:21;24.20;99.90
33023;DHT22;19390;51.460;5.710;2023-07-02T14:34:46;24.80;99.90
33023;DHT22;19390;51.460;5.710;2023-07-02T14:37:12;24.10;99.90
33023;DHT22;19390;51.460;5.710;2023-07-02T14:39:37;24.60;99.90
33023;DHT22;19390;51.460;5.710;2023-07-02T14:42:03;24.00;99.90
33023;DHT22;19390;51.460;5.710;2023-07-02T14:44:31;24.60;99.90
33023;DHT22;19390;51.460;5.710;2023-07-02T14:46:56;24.50;99.90
33023;DHT22;19390;51.460;5.710;2023-07-02T14:49:22;24.00;99.90
33023;DHT22;19390;51.460;5.710;2023-07-02T14:51:48;24.00;99.90
33023;DHT22;19390;51.460;5.710;2023-07-02T14:54:13;24.70;99.90
33023;DHT22;19390;51.460;5.710;2023-07-02T14:56:39;24.90;99.90
33023;DHT22;19390;51.460;5.710;2023-07-02T14:59:05;25.20;99.90
33023;DHT22;19390;51.460;5.710;2023-07-02T15:01:32;24.90;99.90
33023;DHT22;19390;51.460;5.710;2023-07-02T15:03:58;25.50;99.90
33023;DHT22;19390;51.460;5.710;2023-07-02T15:06:24;25.30;99.90
33023;DHT22;19390;51.460;5.710;2023-07-02T15:08:49;24.50;99.90
33023;DHT22;19390;51.460;5.710;2023-07-02T15:11:16;24.30;99.90
33023;DHT22;19390;51.460;5.710;2023-07-02T15:13:43;24.30;99.90
33023;DHT22;19390;51.460;5.710;2023-07-02T15:16:09;24.10;99.90
33023;DHT22;19390;51.460;5.710;2023-07-02T15:18:35;23.90;99.90
33023;DHT22;19390;51.460;5.710;2023-07-02T15:21:01;23.90;99.90
33023;DHT22;19390;51.460;5.710;2023-07-02T15:23:28;23.50;99.90
33023;DHT22;19390;51.460;5.710;2023-07-02T15:25:59;23.40;99.90